Pilot Knob, Texas
Current Conditions -  °F | °C
As of 1:53 PM on Monday 24 Nov 2014 (Local Time) from KAUS Reporting Station
Scattered Clouds Scattered Clouds  
Wind Chill: 65°   Ceiling: Unl
Heat Index: 65°   Visibility: 10mi
Dew Point: 25°   Wind: 12mph
Humidity: 22%   Direction: 350°N
Pressure: 30.05"   Gusts: NA
Location:  30.1791°N, 97.7294°W
Report Text: KAUS 241953Z 35010KT 10SM FEW200 SCT250 18/M04 A3005 RMK AO2 SLP174 T01831039
Loading
Personal Weather Stations






























Interactive Weather Map New forecast layout! Learn more

10-Day Weather Forecast

Advertisements
Track Severe Weather on mobile